createdAt,value
2023-02-08T00:01:25.669Z,-4.10
2023-02-08T00:03:53.204Z,-4.20
2023-02-08T00:06:20.138Z,-4.20
2023-02-08T00:08:47.215Z,-4.20
2023-02-08T00:11:14.097Z,-4.30
2023-02-08T00:13:42.400Z,-4.30
2023-02-08T00:16:10.527Z,-4.20
2023-02-08T00:18:37.415Z,-4.20
2023-02-08T00:21:14.942Z,-4.10
2023-02-08T00:23:42.356Z,-4.10
2023-02-08T00:26:10.409Z,-4.10
2023-02-08T00:28:37.429Z,-4.10
2023-02-08T00:31:05.446Z,-4.10
2023-02-08T00:33:32.715Z,-4.10
2023-02-08T00:36:04.332Z,-4.10
2023-02-08T00:38:32.178Z,-4.10
2023-02-08T00:40:59.096Z,-4.10
2023-02-08T00:43:26.083Z,-4.10
2023-02-08T00:46:00.660Z,-4.10
2023-02-08T00:48:28.820Z,-4.20
2023-02-08T00:51:06.435Z,-4.30
2023-02-08T00:53:42.566Z,-4.30
2023-02-08T00:56:13.525Z,-4.40
2023-02-08T00:58:41.652Z,-4.40
2023-02-08T01:01:09.727Z,-4.40
2023-02-08T01:03:40.942Z,-4.40
2023-02-08T01:06:14.861Z,-4.30
2023-02-08T01:08:41.815Z,-4.30
2023-02-08T01:11:21.552Z,-4.20
2023-02-08T01:13:49.819Z,-4.20
2023-02-08T01:16:23.065Z,-4.20
2023-02-08T01:18:54.058Z,-4.20
2023-02-08T01:21:29.729Z,-4.20
2023-02-08T01:23:57.258Z,-4.20
2023-02-08T01:26:26.067Z,-4.10
2023-02-08T01:28:55.417Z,-4.10
2023-02-08T01:31:29.352Z,-4.10
2023-02-08T01:33:58.978Z,-4.20
2023-02-08T01:36:28.419Z,-4.10
2023-02-08T01:38:55.735Z,-4.10
2023-02-08T01:41:38.839Z,-4.10
2023-02-08T01:44:11.810Z,-4.10
2023-02-08T01:46:46.193Z,-4.10
2023-02-08T01:49:28.545Z,-4.10
2023-02-08T01:52:20.595Z,-4.10
2023-02-08T01:55:12.673Z,-4.20
2023-02-08T01:57:40.914Z,-4.20
2023-02-08T02:00:17.704Z,-4.20
2023-02-08T02:02:48.877Z,-4.30
2023-02-08T02:05:23.767Z,-4.30
2023-02-08T02:07:55.323Z,-4.30
2023-02-08T02:10:34.068Z,-4.30
2023-02-08T02:13:20.946Z,-4.30
2023-02-08T02:15:50.062Z,-4.40
2023-02-08T02:18:26.439Z,-4.50
2023-02-08T02:21:44.944Z,-4.60
2023-02-08T02:25:06.832Z,-4.70
2023-02-08T02:28:28.148Z,-4.60
2023-02-08T02:31:43.401Z,-4.60
2023-02-08T02:34:31.268Z,-4.70
2023-02-08T02:37:33.998Z,-5.00
2023-02-08T02:40:19.525Z,-5.30
2023-02-08T02:43:42.462Z,-5.70
2023-02-08T02:46:42.719Z,-5.90
2023-02-08T02:50:04.648Z,-6.10
2023-02-08T02:52:54.456Z,-6.20
2023-02-08T02:55:28.082Z,-6.30
2023-02-08T02:58:00.444Z,-6.40
2023-02-08T03:00:31.319Z,-6.40
2023-02-08T03:02:59.043Z,-6.50
2023-02-08T03:05:29.521Z,-6.60
2023-02-08T03:08:28.983Z,-6.50
2023-02-08T03:11:26.475Z,-6.50
2023-02-08T03:14:29.036Z,-6.40
2023-02-08T03:17:35.151Z,-6.30
2023-02-08T03:20:30.638Z,-6.20
2023-02-08T03:23:30.347Z,-6.20
2023-02-08T03:26:17.102Z,-6.10
2023-02-08T03:29:14.561Z,-6.00
2023-02-08T03:31:59.642Z,-6.00
2023-02-08T03:35:04.699Z,-6.00
2023-02-08T03:37:54.762Z,-5.90
2023-02-08T03:40:32.514Z,-5.90
2023-02-08T03:43:11.787Z,-5.90
2023-02-08T03:45:54.985Z,-5.90
2023-02-08T03:48:26.916Z,-5.90
2023-02-08T03:50:58.200Z,-5.90
2023-02-08T03:53:28.291Z,-5.90
2023-02-08T03:56:07.386Z,-5.90
2023-02-08T03:59:18.705Z,-5.90
2023-02-08T04:02:06.897Z,-5.90
2023-02-08T04:04:44.720Z,-5.90
2023-02-08T04:07:12.650Z,-5.90
2023-02-08T04:09:39.727Z,-5.70
2023-02-08T04:12:07.354Z,-5.60
2023-02-08T04:14:34.235Z,-5.60
2023-02-08T04:17:01.625Z,-5.50
2023-02-08T04:19:28.761Z,-5.50
2023-02-08T04:21:55.778Z,-5.50
2023-02-08T04:24:22.744Z,-5.50
2023-02-08T04:26:49.707Z,-5.50
2023-02-08T04:29:16.595Z,-5.50
2023-02-08T04:31:43.733Z,-5.60
2023-02-08T04:34:10.698Z,-5.60
2023-02-08T04:36:37.723Z,-5.60
2023-02-08T04:39:04.602Z,-5.60
2023-02-08T04:41:31.565Z,-5.50
2023-02-08T04:43:58.439Z,-5.60
2023-02-08T04:46:25.369Z,-5.70
2023-02-08T04:48:52.292Z,-5.60
2023-02-08T04:51:19.704Z,-5.60
2023-02-08T04:53:46.577Z,-5.70
2023-02-08T04:56:14.435Z,-5.70
2023-02-08T04:58:41.457Z,-5.70
2023-02-08T05:01:10.781Z,-5.60
2023-02-08T05:03:37.820Z,-5.70
2023-02-08T05:06:04.990Z,-5.70
2023-02-08T05:08:31.854Z,-5.80
2023-02-08T05:10:58.766Z,-5.80
2023-02-08T05:13:25.629Z,-5.90
2023-02-08T05:15:52.504Z,-5.90
2023-02-08T05:18:19.837Z,-6.00
2023-02-08T05:20:55.204Z,-6.10
2023-02-08T05:23:22.098Z,-6.10
2023-02-08T05:25:49.168Z,-6.20
2023-02-08T05:28:16.630Z,-6.30
2023-02-08T05:30:44.234Z,-6.40
2023-02-08T05:33:11.104Z,-6.40
2023-02-08T05:35:38.025Z,-6.40
2023-02-08T05:38:05.043Z,-6.50
2023-02-08T05:40:35.428Z,-6.60
2023-02-08T05:43:02.701Z,-6.80
2023-02-08T05:45:29.672Z,-7.10
2023-02-08T05:47:56.640Z,-7.20
2023-02-08T05:50:23.576Z,-7.40
2023-02-08T05:52:50.667Z,-7.50
2023-02-08T05:55:17.620Z,-7.40
2023-02-08T05:57:44.491Z,-7.40
2023-02-08T06:00:12.578Z,-7.50
2023-02-08T06:02:39.447Z,-7.70
2023-02-08T06:05:07.075Z,-7.70
2023-02-08T06:07:34.008Z,-7.80
2023-02-08T06:10:00.876Z,-7.80
2023-02-08T06:12:27.755Z,-7.60
2023-02-08T06:14:54.824Z,-7.60
2023-02-08T06:17:21.783Z,-7.40
2023-02-08T06:19:48.787Z,-7.30
2023-02-08T06:22:15.674Z,-7.30
2023-02-08T06:24:42.734Z,-7.20
2023-02-08T06:27:09.595Z,-7.10
2023-02-08T06:29:36.478Z,-7.20
2023-02-08T06:32:03.558Z,-7.20
2023-02-08T06:34:30.568Z,-7.30
2023-02-08T06:36:59.672Z,-7.30
2023-02-08T06:39:26.523Z,-7.30
2023-02-08T06:41:53.461Z,-7.30
2023-02-08T06:44:20.345Z,-7.30
2023-02-08T06:46:47.367Z,-7.10
2023-02-08T06:49:14.229Z,-7.20
2023-02-08T06:51:41.429Z,-7.10
2023-02-08T06:54:08.300Z,-7.20
2023-02-08T06:56:35.370Z,-7.10
2023-02-08T06:59:02.345Z,-7.00
2023-02-08T07:01:29.322Z,-6.70
2023-02-08T07:03:56.189Z,-6.40
2023-02-08T07:06:23.185Z,-6.00
2023-02-08T07:08:50.064Z,-5.40
2023-02-08T07:11:20.451Z,-5.00
2023-02-08T07:13:51.258Z,-4.70
2023-02-08T07:16:20.339Z,-4.40
2023-02-08T07:18:47.838Z,-4.10
2023-02-08T07:21:15.163Z,-3.90
2023-02-08T07:23:42.295Z,-3.80
2023-02-08T07:26:14.312Z,-3.50
2023-02-08T07:28:42.248Z,-3.30
2023-02-08T07:31:14.787Z,-3.00
2023-02-08T07:33:42.728Z,-2.80
2023-02-08T07:36:11.126Z,-2.80
2023-02-08T07:38:39.270Z,-2.70
2023-02-08T07:41:11.967Z,-2.60
2023-02-08T07:43:41.370Z,-2.40
2023-02-08T07:46:20.649Z,-2.20
2023-02-08T07:48:52.524Z,-2.00
2023-02-08T07:51:19.860Z,-1.80
2023-02-08T07:53:46.993Z,-1.70
2023-02-08T07:56:13.892Z,-1.50
2023-02-08T07:58:40.775Z,-1.30
2023-02-08T08:01:23.487Z,-1.20
2023-02-08T08:03:52.737Z,-1.00
2023-02-08T08:06:22.684Z,-1.00
2023-02-08T08:08:51.002Z,-0.90
2023-02-08T08:11:20.644Z,-0.60
2023-02-08T08:13:47.559Z,-0.40
2023-02-08T08:16:16.016Z,0.00
2023-02-08T08:18:43.101Z,0.20
2023-02-08T08:21:10.529Z,0.60
2023-02-08T08:23:37.981Z,0.50
2023-02-08T08:26:19.182Z,0.30
2023-02-08T08:28:47.563Z,0.60
2023-02-08T08:31:21.717Z,0.70
2023-02-08T08:33:49.767Z,0.60
2023-02-08T08:36:16.832Z,0.40
2023-02-08T08:38:43.719Z,0.50
2023-02-08T08:41:20.966Z,0.30
2023-02-08T08:43:49.150Z,0.80
2023-02-08T08:46:16.689Z,1.30
2023-02-08T08:48:45.516Z,1.00
2023-02-08T08:51:13.990Z,1.40
2023-02-08T08:53:41.028Z,1.60
2023-02-08T08:56:08.152Z,1.70
2023-02-08T08:58:35.116Z,1.80
2023-02-08T09:03:34.656Z,1.90
2023-02-08T09:06:01.573Z,1.70
2023-02-08T09:08:28.454Z,1.60
2023-02-08T09:10:55.351Z,1.50
2023-02-08T09:13:22.198Z,1.50
2023-02-08T09:15:49.410Z,1.90
2023-02-08T09:18:16.783Z,2.40
2023-02-08T09:20:44.095Z,2.10
2023-02-08T09:23:11.602Z,2.60
2023-02-08T09:25:38.856Z,3.50
2023-02-08T09:28:06.024Z,3.80
2023-02-08T09:30:33.908Z,4.10
2023-02-08T09:33:00.802Z,4.30
2023-02-08T09:35:27.690Z,4.20
2023-02-08T09:37:57.938Z,4.10
2023-02-08T09:40:42.832Z,3.80
2023-02-08T09:43:45.756Z,3.70
2023-02-08T09:46:21.430Z,4.40
2023-02-08T09:48:54.388Z,4.30
2023-02-08T09:51:53.788Z,4.30
2023-02-08T09:54:40.128Z,5.30
2023-02-08T09:57:20.017Z,6.20
2023-02-08T10:00:10.877Z,6.40
2023-02-08T10:02:39.315Z,6.90
2023-02-08T10:05:13.200Z,6.50
2023-02-08T10:07:43.084Z,6.40
2023-02-08T10:10:32.188Z,6.40
2023-02-08T10:14:00.453Z,6.00
2023-02-08T10:17:21.598Z,6.00
2023-02-08T10:21:00.421Z,6.40
2023-02-08T10:24:37.344Z,7.30
2023-02-08T10:27:28.088Z,7.90
2023-02-08T10:30:54.529Z,7.80
2023-02-08T10:33:51.720Z,8.20
2023-02-08T10:36:32.061Z,8.40
2023-02-08T10:39:03.251Z,8.80
2023-02-08T10:41:37.372Z,8.90
2023-02-08T10:45:22.531Z,8.30
2023-02-08T10:47:58.535Z,8.20
2023-02-08T10:50:47.404Z,8.20
2023-02-08T10:53:20.241Z,7.60
2023-02-08T10:55:50.334Z,7.80
2023-02-08T10:58:21.955Z,7.30
2023-02-08T11:00:51.935Z,7.10
2023-02-08T11:03:26.258Z,7.10
2023-02-08T11:05:55.464Z,7.30
2023-02-08T11:08:28.671Z,7.50
2023-02-08T11:11:09.940Z,7.40
2023-02-08T11:13:51.348Z,7.00
2023-02-08T11:16:27.685Z,6.90
2023-02-08T11:19:05.276Z,6.70
2023-02-08T11:21:40.424Z,6.90
2023-02-08T11:24:16.081Z,7.00
2023-02-08T11:26:43.857Z,7.40
2023-02-08T11:29:17.263Z,7.50
2023-02-08T11:31:58.474Z,7.40
2023-02-08T11:34:39.144Z,8.00
2023-02-08T11:37:28.353Z,7.30
2023-02-08T11:39:59.528Z,6.80
2023-02-08T11:42:40.812Z,7.00
2023-02-08T11:45:19.132Z,6.90
2023-02-08T11:47:49.902Z,7.60
2023-02-08T11:50:56.105Z,7.50
2023-02-08T11:53:36.588Z,8.20
2023-02-08T11:56:23.655Z,8.30
2023-02-08T11:59:09.805Z,8.30
2023-02-08T12:01:40.460Z,7.90
2023-02-08T12:04:13.945Z,8.00
2023-02-08T12:07:17.414Z,7.70
2023-02-08T12:10:26.269Z,7.90
2023-02-08T12:13:28.153Z,8.70
2023-02-08T12:16:44.753Z,8.50
2023-02-08T12:20:32.162Z,8.10
2023-02-08T12:23:51.038Z,8.10
2023-02-08T12:26:35.030Z,8.20
2023-02-08T12:29:47.393Z,8.60
2023-02-08T12:33:46.662Z,8.30
2023-02-08T12:36:44.219Z,8.30
2023-02-08T12:40:10.176Z,7.50
2023-02-08T12:43:40.058Z,7.50
2023-02-08T12:47:05.415Z,7.60
2023-02-08T12:50:20.414Z,8.40
2023-02-08T12:53:21.356Z,8.50
2023-02-08T12:55:51.798Z,9.00
2023-02-08T12:58:46.387Z,9.50
2023-02-08T13:01:44.787Z,9.50
2023-02-08T13:04:26.185Z,8.40
2023-02-08T13:07:45.486Z,8.10
2023-02-08T13:10:34.584Z,7.90
2023-02-08T13:13:28.837Z,8.10
2023-02-08T13:16:10.164Z,8.40
2023-02-08T13:18:50.332Z,8.00
2023-02-08T13:21:28.536Z,8.30
2023-02-08T13:23:57.416Z,8.70
2023-02-08T13:26:31.421Z,8.50
2023-02-08T13:29:02.589Z,8.40
2023-02-08T13:31:42.183Z,7.70
2023-02-08T13:34:43.002Z,7.20
2023-02-08T13:37:29.566Z,7.30
2023-02-08T13:40:28.258Z,7.80
2023-02-08T13:43:36.037Z,7.70
2023-02-08T13:46:06.083Z,7.50
2023-02-08T13:48:55.100Z,7.00
2023-02-08T13:51:31.176Z,6.80
2023-02-08T13:53:57.995Z,7.60
2023-02-08T13:56:50.775Z,7.40
2023-02-08T13:59:38.348Z,7.10
2023-02-08T14:02:22.217Z,7.30
2023-02-08T14:05:17.696Z,7.00
2023-02-08T14:07:48.528Z,6.80
2023-02-08T14:10:38.838Z,6.90
2023-02-08T14:13:36.856Z,7.20
2023-02-08T14:16:35.712Z,7.00
2023-02-08T14:19:24.915Z,7.20
2023-02-08T14:22:12.814Z,7.70
2023-02-08T14:24:49.451Z,7.70
2023-02-08T14:27:42.606Z,7.40
2023-02-08T14:30:18.578Z,6.70
2023-02-08T14:33:09.829Z,6.80
2023-02-08T14:35:58.114Z,7.00
2023-02-08T14:38:24.926Z,6.80
2023-02-08T14:41:00.896Z,7.00
2023-02-08T14:43:40.979Z,7.00
2023-02-08T14:46:39.716Z,7.30
2023-02-08T14:49:17.105Z,7.40
2023-02-08T14:52:20.023Z,8.30
2023-02-08T14:55:21.566Z,9.10
2023-02-08T14:57:49.563Z,9.40
2023-02-08T15:00:25.694Z,9.80
2023-02-08T15:02:56.102Z,9.40
2023-02-08T15:05:35.191Z,8.90
2023-02-08T15:08:03.538Z,8.60
2023-02-08T15:10:34.964Z,8.50
2023-02-08T15:13:07.824Z,7.80
2023-02-08T15:15:45.721Z,7.40
2023-02-08T15:18:30.333Z,6.80
2023-02-08T15:21:19.303Z,6.30
2023-02-08T15:24:13.311Z,5.90
2023-02-08T15:26:56.362Z,5.70
2023-02-08T15:29:42.914Z,5.40
2023-02-08T15:32:20.231Z,5.20
2023-02-08T15:34:57.292Z,4.90
2023-02-08T15:37:26.420Z,4.50
2023-02-08T15:39:59.803Z,4.40
2023-02-08T15:42:33.019Z,4.50
2023-02-08T15:45:02.568Z,4.00
2023-02-08T15:47:36.055Z,3.60
2023-02-08T15:50:14.790Z,3.40
2023-02-08T15:52:42.451Z,3.10
2023-02-08T15:55:16.935Z,3.00
2023-02-08T15:57:59.173Z,2.80
2023-02-08T16:00:34.771Z,2.60
2023-02-08T16:03:24.843Z,2.50
2023-02-08T16:06:04.753Z,2.20
2023-02-08T16:08:37.802Z,1.90
2023-02-08T16:11:20.888Z,1.60
2023-02-08T16:13:54.472Z,1.40
2023-02-08T16:16:37.885Z,1.00
2023-02-08T16:19:31.473Z,0.60
2023-02-08T16:22:31.817Z,-0.10
2023-02-08T16:25:36.214Z,-0.50
2023-02-08T16:28:06.017Z,-0.90
2023-02-08T16:30:34.097Z,-1.10
2023-02-08T16:33:08.778Z,-1.30
2023-02-08T16:35:40.003Z,-1.30
2023-02-08T16:38:10.336Z,-1.50
2023-02-08T16:40:51.556Z,-1.60
2023-02-08T16:43:35.000Z,-1.70
2023-02-08T16:46:11.018Z,-1.80
2023-02-08T16:48:53.915Z,-1.70
2023-02-08T16:51:27.539Z,-1.80
2023-02-08T16:54:03.343Z,-1.80
2023-02-08T16:56:30.343Z,-1.90
2023-02-08T16:58:57.183Z,-1.80
2023-02-08T17:01:24.445Z,-1.90
2023-02-08T17:03:52.766Z,-1.90
2023-02-08T17:06:35.920Z,-2.00
2023-02-08T17:09:08.034Z,-2.10
2023-02-08T17:11:36.828Z,-2.10
2023-02-08T17:14:05.368Z,-2.20
2023-02-08T17:16:36.101Z,-2.30
2023-02-08T17:19:04.653Z,-2.30
2023-02-08T17:21:31.670Z,-2.40
2023-02-08T17:23:59.533Z,-2.40
2023-02-08T17:26:40.723Z,-2.50
2023-02-08T17:29:08.184Z,-2.50
2023-02-08T17:31:35.720Z,-2.50
2023-02-08T17:34:05.701Z,-2.50
2023-02-08T17:36:36.965Z,-2.40
2023-02-08T17:39:06.250Z,-2.30
2023-02-08T17:41:33.337Z,-2.30
2023-02-08T17:44:00.245Z,-2.30
2023-02-08T17:46:32.414Z,-2.30
2023-02-08T17:49:01.448Z,-2.40
2023-02-08T17:51:29.094Z,-2.40
2023-02-08T17:53:56.302Z,-2.40
2023-02-08T17:56:28.445Z,-2.50
2023-02-08T17:58:56.226Z,-2.60
2023-02-08T18:01:27.139Z,-2.80
2023-02-08T18:03:55.183Z,-3.00
2023-02-08T18:06:24.896Z,-3.10
2023-02-08T18:08:54.722Z,-3.10
2023-02-08T18:11:23.240Z,-3.00
2023-02-08T18:13:53.523Z,-2.90
2023-02-08T18:16:26.311Z,-2.90
2023-02-08T18:18:59.239Z,-3.00
2023-02-08T18:21:26.641Z,-3.10
2023-02-08T18:23:55.249Z,-3.20
2023-02-08T18:26:24.572Z,-3.30
2023-02-08T18:28:52.306Z,-3.40
2023-02-08T18:31:21.118Z,-3.30
2023-02-08T18:33:50.717Z,-3.30
2023-02-08T18:36:20.443Z,-3.40
2023-02-08T18:38:51.995Z,-3.60
2023-02-08T18:41:30.483Z,-3.70
2023-02-08T18:43:59.202Z,-3.80
2023-02-08T18:46:28.679Z,-3.70
2023-02-08T18:48:55.973Z,-3.70
2023-02-08T18:51:26.393Z,-3.70
2023-02-08T18:53:55.786Z,-3.70
2023-02-08T18:56:27.147Z,-3.80
2023-02-08T18:58:58.628Z,-3.90
2023-02-08T19:01:26.216Z,-3.90
2023-02-08T19:03:53.982Z,-3.90
2023-02-08T19:06:28.456Z,-3.90
2023-02-08T19:08:59.466Z,-3.80
2023-02-08T19:11:35.984Z,-3.80
2023-02-08T19:14:12.172Z,-3.70
2023-02-08T19:16:42.848Z,-3.80
2023-02-08T19:19:10.989Z,-3.60
2023-02-08T19:21:39.408Z,-3.50
2023-02-08T19:24:06.886Z,-3.50
2023-02-08T19:26:39.723Z,-3.50
2023-02-08T19:29:13.891Z,-3.50
2023-02-08T19:31:42.352Z,-3.50
2023-02-08T19:34:12.076Z,-3.50
2023-02-08T19:36:51.943Z,-3.50
2023-02-08T19:39:25.903Z,-3.60
2023-02-08T19:41:54.559Z,-3.60
2023-02-08T19:44:22.495Z,-3.70
2023-02-08T19:46:53.995Z,-3.70
2023-02-08T19:49:23.616Z,-3.70
2023-02-08T19:51:50.500Z,-3.80
2023-02-08T19:54:19.864Z,-3.80
2023-02-08T19:56:50.252Z,-3.70
2023-02-08T19:59:26.777Z,-3.70
2023-02-08T20:01:55.390Z,-3.70
2023-02-08T20:04:23.635Z,-3.60
2023-02-08T20:06:54.021Z,-3.70
2023-02-08T20:09:21.788Z,-3.80
2023-02-08T20:11:57.285Z,-3.80
2023-02-08T20:14:32.692Z,-3.80
2023-02-08T20:17:02.142Z,-3.80
2023-02-08T20:19:29.563Z,-3.90
2023-02-08T20:21:56.532Z,-3.90
2023-02-08T20:24:23.562Z,-3.90
2023-02-08T20:26:50.976Z,-4.00
2023-02-08T20:29:19.024Z,-4.10
2023-02-08T20:31:51.779Z,-4.20
2023-02-08T20:34:19.040Z,-4.30
2023-02-08T20:37:04.429Z,-4.40
2023-02-08T20:39:34.376Z,-4.50
2023-02-08T20:42:01.335Z,-4.60
2023-02-08T20:44:28.411Z,-4.70
2023-02-08T20:46:55.408Z,-4.70
2023-02-08T20:49:25.393Z,-4.70
2023-02-08T20:51:54.801Z,-4.80
2023-02-08T20:54:26.316Z,-4.80
2023-02-08T20:56:54.301Z,-4.90
2023-02-08T20:59:22.279Z,-5.10
2023-02-08T21:01:50.104Z,-5.30
2023-02-08T21:04:19.627Z,-5.30
2023-02-08T21:06:46.547Z,-5.40
2023-02-08T21:09:17.592Z,-5.30
2023-02-08T21:11:47.061Z,-5.20
2023-02-08T21:14:20.766Z,-5.20
2023-02-08T21:16:56.201Z,-5.00
2023-02-08T21:19:24.101Z,-5.00
2023-02-08T21:21:58.518Z,-4.90
2023-02-08T21:24:26.967Z,-5.00
2023-02-08T21:26:56.349Z,-5.00
2023-02-08T21:29:24.340Z,-5.00
2023-02-08T21:31:53.831Z,-5.00
2023-02-08T21:34:21.385Z,-5.00
2023-02-08T21:36:48.726Z,-4.90
2023-02-08T21:39:15.689Z,-4.80
2023-02-08T21:41:42.657Z,-4.70
2023-02-08T21:44:11.220Z,-4.80
2023-02-08T21:46:38.119Z,-4.80
2023-02-08T21:49:23.926Z,-4.80
2023-02-08T21:52:09.995Z,-4.80
2023-02-08T21:54:43.928Z,-4.70
2023-02-08T21:57:25.813Z,-4.60
2023-02-08T21:59:59.501Z,-4.50
2023-02-08T22:02:30.353Z,-4.50
2023-02-08T22:05:21.798Z,-4.50
2023-02-08T22:07:54.846Z,-4.40
2023-02-08T22:10:30.308Z,-4.60
2023-02-08T22:12:58.403Z,-4.70
2023-02-08T22:15:29.709Z,-4.70
2023-02-08T22:18:01.588Z,-4.70
2023-02-08T22:20:30.450Z,-4.80
2023-02-08T22:22:57.410Z,-4.90
2023-02-08T22:25:24.570Z,-5.00
2023-02-08T22:27:52.550Z,-5.10
2023-02-08T22:30:21.245Z,-5.20
2023-02-08T22:32:49.220Z,-5.30
2023-02-08T22:35:18.953Z,-5.30
2023-02-08T22:37:46.190Z,-5.30
2023-02-08T22:40:13.460Z,-5.40
2023-02-08T22:42:41.867Z,-5.40
2023-02-08T22:45:10.348Z,-5.30
2023-02-08T22:47:37.981Z,-5.30
2023-02-08T22:50:09.440Z,-5.30
2023-02-08T22:52:36.537Z,-5.30
2023-02-08T22:55:05.554Z,-5.20
2023-02-08T22:57:35.717Z,-5.30
2023-02-08T23:00:07.481Z,-5.40
2023-02-08T23:02:34.490Z,-5.50
2023-02-08T23:05:01.463Z,-5.60
2023-02-08T23:07:28.313Z,-5.60
2023-02-08T23:09:55.205Z,-5.60
2023-02-08T23:12:22.087Z,-5.90
2023-02-08T23:14:49.728Z,-6.10
2023-02-08T23:17:17.099Z,-6.30
2023-02-08T23:19:44.126Z,-6.40
2023-02-08T23:22:11.124Z,-6.50
2023-02-08T23:24:37.988Z,-6.40
2023-02-08T23:27:04.873Z,-6.20
2023-02-08T23:29:31.908Z,-6.20
2023-02-08T23:31:58.859Z,-6.20
2023-02-08T23:34:25.842Z,-6.30
2023-02-08T23:36:52.700Z,-6.40
2023-02-08T23:39:19.572Z,-6.30
2023-02-08T23:41:46.458Z,-6.30
2023-02-08T23:44:13.382Z,-6.20
2023-02-08T23:46:40.379Z,-6.20
2023-02-08T23:49:07.302Z,-6.30
2023-02-08T23:51:34.190Z,-6.30
2023-02-08T23:54:01.118Z,-6.40
2023-02-08T23:56:34.094Z,-6.30
2023-02-08T23:59:01.286Z,-6.30
